National Weather Service Raw Text Product

Displaying AFOS PIL: TAFOTM Received: 2018-07-12 05:20 UTC


514 
FTUS43 KDMX 120520
TAFOTM
TAF
KOTM 120520Z 1206/1306 13008KT P6SM FEW250
     FM121600 18008G14KT P6SM FEW040 FEW250
     FM130100 16008KT P6SM FEW250=